Time;durP1;ratioP1;P1;durP2;ratioP2;P2;SDS_P1;SDS_P2;PMS_P1;PMS_P2;Temp;Humidity;BMP_temperature;BMP_pressure;BME280_temperature;BME280_humidity;BME280_pressure;Samples;Min_cycle;Max_cycle;Signal;HPM_P1;HPM_P2
2023/03/01 00:01:14;;;;;;;;;;;;;;;-144.99;85.52;52399.19;5045161;28;20290;-75
2023/03/01 00:03:40;;;;;;;;;;;;;;;-144.99;85.33;52399.19;5048148;28;19952;-68
2023/03/01 00:06:07;;;;;;;;;;;;;;;-144.99;85.15;52419.56;5048898;28;19925;-67
2023/03/01 00:08:34;;;;;;;;;;;;;;;-144.99;85.31;52423.63;5048041;28;20024;-68
2023/03/01 00:11:01;;;;;;;;;;;;;;;-144.99;85.10;52419.56;5048778;28;19933;-67
2023/03/01 00:13:27;;;;;;;;;;;;;;;-144.99;85.21;52403.25;5046540;28;20352;-73
2023/03/01 00:15:54;;;;;;;;;;;;;;;-144.99;85.33;52427.72;5048967;28;19924;-77
2023/03/01 00:18:22;;;;;;;;;;;;;;;-144.99;85.72;52393.06;5049120;28;19925;-76
2023/03/01 00:20:50;;;;;;;;;;;;;;;-144.99;85.70;52427.72;5044851;28;19952;-69
2023/03/01 00:23:17;;;;;;;;;;;;;;;-144.99;85.96;52403.25;5048587;28;20331;-70
2023/03/01 00:25:43;;;;;;;;;;;;;;;-144.99;86.14;52423.63;5044257;28;19976;-69
2023/03/01 00:28:10;;;;;;;;;;;;;;;-144.99;85.90;52407.31;5047933;28;19928;-71
2023/03/01 00:33:58;;;;;;;;;;;;;;;-144.99;86.04;52419.56;5039588;28;20319;-74
2023/03/01 00:36:25;;;;;;;;;;;;;;;-144.99;85.99;52391.03;5048467;28;20496;-76
2023/03/01 00:38:52;;;;;;;;;;;;;;;-144.99;86.46;52386.94;5047279;28;19968;-78
2023/03/01 00:41:19;;;;;;;;;;;;;;;-144.99;87.07;52429.75;5047410;28;20024;-70
2023/03/01 00:43:46;;;;;;;;;;;;;;;-144.99;86.85;52391.03;5047816;28;19967;-64
2023/03/01 00:46:13;;;;;;;;;;;;;;;-144.99;86.81;52429.75;5045467;28;19925;-63
2023/03/01 00:48:40;;;;;;;;;;;;;;;-144.99;86.56;52460.31;5046766;28;20020;-65
2023/03/01 00:51:08;;;;;;;;;;;;;;;-144.99;86.45;52419.56;5047475;28;19936;-68
2023/03/01 00:53:35;;;;;;;;;;;;;;;-144.99;85.70;52454.22;5047430;28;20534;-67
2023/03/01 00:56:01;;;;;;;;;;;;;;;-144.99;85.42;52446.06;5047905;28;20401;-67
2023/03/01 00:58:28;;;;;;;;;;;;;;;-144.99;85.41;52419.56;5043801;28;19963;-66
2023/03/01 01:00:54;;;;;;;;;;;;;;;-144.99;85.58;52399.19;5047430;28;19933;-66
2023/03/01 01:03:21;;;;;;;;;;;;;;;-144.99;85.67;52395.09;5045378;28;21581;-66
2023/03/01 01:05:48;;;;;;;;;;;;;;;-144.99;85.59;52425.66;5047865;28;19991;-67
2023/03/01 01:08:16;;;;;;;;;;;;;;;-144.99;85.91;52415.47;5047257;28;19929;-66
2023/03/01 01:10:44;;;;;;;;;;;;;;;-144.99;86.03;52472.56;5048185;28;19925;-66
2023/03/01 01:13:10;;;;;;;;;;;;;;;-144.99;86.39;52439.94;5046913;28;19967;-66
2023/03/01 01:15:37;;;;;;;;;;;;;;;-144.99;86.32;52399.19;5046797;28;19928;-66
2023/03/01 01:18:05;;;;;;;;;;;;;;;-144.99;86.42;52401.22;5046316;28;19964;-70
2023/03/01 01:20:32;;;;;;;;;;;;;;;-144.99;86.24;52435.88;5052378;28;19932;-70
2023/03/01 01:22:58;;;;;;;;;;;;;;;-144.99;86.49;52382.88;5045788;28;19925;-74
2023/03/01 01:25:26;;;;;;;;;;;;;;;-144.99;86.77;52407.31;5046394;28;19929;-74
2023/03/01 01:27:53;;;;;;;;;;;;;;;-144.99;87.06;52417.53;5044109;28;19994;-73
2023/03/01 01:30:19;;;;;;;;;;;;;;;-144.99;87.21;52431.78;5046659;28;20061;-73
2023/03/01 01:32:46;;;;;;;;;;;;;;;-144.99;86.88;52403.25;5047382;28;19925;-72
2023/03/01 01:35:12;;;;;;;;;;;;;;;-144.99;86.79;52407.31;5047379;28;19925;-71
2023/03/01 01:37:39;;;;;;;;;;;;;;;-144.99;86.94;52439.94;5047127;28;19961;-70
2023/03/01 01:40:06;;;;;;;;;;;;;;;-144.99;86.58;52435.88;5048629;28;19933;-73
2023/03/01 01:42:34;;;;;;;;;;;;;;;-144.99;86.89;52435.88;5045491;28;19990;-74
2023/03/01 01:45:19;;;;;;;;;;;;;;;-144.99;87.02;52407.31;5042842;28;19994;-73
2023/03/01 01:47:48;;;;;;;;;;;;;;;-144.99;86.88;52386.94;5045605;28;20053;-71
2023/03/01 01:50:19;;;;;;;;;;;;;;;-144.99;87.00;52419.56;5047160;28;19928;-71
2023/03/01 01:52:46;;;;;;;;;;;;;;;-144.99;86.67;52419.56;5047448;28;19994;-71
2023/03/01 01:55:14;;;;;;;;;;;;;;;-144.99;86.94;52435.88;5039582;28;20005;-63
2023/03/01 01:57:44;;;;;;;;;;;;;;;-144.99;87.18;52423.63;5040555;28;19936;-64
2023/03/01 02:00:14;;;;;;;;;;;;;;;-144.99;87.90;52444.03;5046230;28;19925;-64
2023/03/01 02:02:42;;;;;;;;;;;;;;;-144.99;87.13;52431.78;5041213;28;20023;-66
2023/03/01 02:05:12;;;;;;;;;;;;;;;-144.99;87.08;52386.94;5046853;28;20281;-67
2023/03/01 02:07:39;;;;;;;;;;;;;;;-144.99;87.34;52419.56;5047000;28;19932;-68
2023/03/01 02:10:07;;;;;;;;;;;;;;;-144.99;87.88;52417.53;5047591;28;19925;-68
2023/03/01 02:12:33;;;;;;;;;;;;;;;-144.99;87.80;52405.28;5047720;28;20390;-69
2023/03/01 02:15:01;;;;;;;;;;;;;;;-144.99;87.92;52407.31;5047843;28;19965;-68
2023/03/01 02:17:28;;;;;;;;;;;;;;;-144.99;88.30;52378.78;5047248;28;19971;-69
2023/03/01 02:20:06;;;;;;;;;;;;;;;-144.99;88.14;52386.94;5050436;28;20005;-78
2023/03/01 02:22:34;;;;;;;;;;;;;;;-144.99;88.26;52431.78;5044915;28;19948;-77
2023/03/01 02:25:17;;;;;;;;;;;;;;;-144.99;88.89;52403.25;5048173;28;20414;-77
2023/03/01 02:27:49;;;;;;;;;;;;;;;-144.99;88.33;52405.28;5050418;28;20378;-77
2023/03/01 02:30:18;;;;;;;;;;;;;;;-144.99;88.90;52415.47;5037369;28;19929;-77
2023/03/01 02:32:44;;;;;;;;;;;;;;;-144.99;88.34;52448.09;5042147;28;19925;-77
2023/03/01 02:35:13;;;;;;;;;;;;;;;-144.99;88.04;52407.31;5048486;28;19931;-73
2023/03/01 02:37:40;;;;;;;;;;;;;;;-144.99;88.04;52431.78;5042963;28;19977;-73
2023/03/01 02:40:11;;;;;;;;;;;;;;;-144.99;88.27;52425.66;5046470;28;20251;-73
2023/03/01 02:42:42;;;;;;;;;;;;;;;-144.99;88.42;52419.56;5050210;28;20027;-66
2023/03/01 02:45:10;;;;;;;;;;;;;;;-144.99;88.57;52444.03;5050332;28;19960;-71
2023/03/01 02:47:37;;;;;;;;;;;;;;;-144.99;88.95;52366.56;5048833;28;20054;-66
2023/03/01 02:50:12;;;;;;;;;;;;;;;-144.99;89.26;52431.78;5050259;28;19986;-74
2023/03/01 02:52:44;;;;;;;;;;;;;;;-144.99;89.06;52423.63;5050753;28;20396;-72
2023/03/01 02:55:11;;;;;;;;;;;;;;;-144.99;89.01;52456.25;5044825;28;19925;-74
2023/03/01 02:57:40;;;;;;;;;;;;;;;-144.99;89.30;52439.94;5042069;28;19932;-74
2023/03/01 03:00:08;;;;;;;;;;;;;;;-144.99;89.12;52452.16;5049892;28;19925;-74
2023/03/01 03:02:38;;;;;;;;;;;;;;;-144.99;89.03;52421.59;5045786;28;19979;-73
2023/03/01 03:05:08;;;;;;;;;;;;;;;-144.99;89.20;52382.88;5041104;28;19925;-72
2023/03/01 03:07:36;;;;;;;;;;;;;;;-144.99;89.31;52411.41;5045081;28;19979;-77
2023/03/01 03:10:03;;;;;;;;;;;;;;;-144.99;89.46;52409.38;5037643;28;19982;-70
2023/03/01 03:12:30;;;;;;;;;;;;;;;-144.99;89.41;52437.91;5046460;28;19929;-69
2023/03/01 03:14:56;;;;;;;;;;;;;;;-144.99;89.38;52464.41;5037603;28;20390;-75
2023/03/01 03:17:23;;;;;;;;;;;;;;;-144.99;88.67;52395.09;5050183;28;20388;-76
2023/03/01 03:19:49;;;;;;;;;;;;;;;-144.99;88.00;52409.38;5048944;28;19925;-75
2023/03/01 03:22:17;;;;;;;;;;;;;;;-144.99;88.44;52423.63;5045079;28;20330;-75
2023/03/01 03:24:44;;;;;;;;;;;;;;;-144.99;88.44;52388.97;5037452;28;19933;-78
2023/03/01 03:27:10;;;;;;;;;;;;;;;-144.99;88.48;52382.88;5047781;28;19937;-77
2023/03/01 03:29:37;;;;;;;;;;;;;;;-144.99;88.39;52415.47;5047305;28;19968;-75
2023/03/01 03:32:04;;;;;;;;;;;;;;;-144.99;87.65;52415.47;5050085;28;19998;-77
2023/03/01 03:34:30;;;;;;;;;;;;;;;-144.99;87.53;52439.94;5046113;28;20297;-76
2023/03/01 03:36:59;;;;;;;;;;;;;;;-144.99;87.41;52425.66;5049759;28;19925;-76
2023/03/01 03:39:27;;;;;;;;;;;;;;;-144.99;87.31;52388.97;5049874;28;19929;-76
2023/03/01 03:41:54;;;;;;;;;;;;;;;-144.99;87.61;52411.41;5044475;28;19978;-76
2023/03/01 03:44:20;;;;;;;;;;;;;;;-144.99;88.00;52431.78;5044518;28;19928;-77
2023/03/01 03:46:47;;;;;;;;;;;;;;;-144.99;88.21;52399.19;5041382;28;19925;-77
2023/03/01 03:49:14;;;;;;;;;;;;;;;-144.99;88.31;52388.97;5049609;28;20008;-75
2023/03/01 03:51:40;;;;;;;;;;;;;;;-144.99;88.69;52415.47;5049372;28;19966;-72
2023/03/01 03:54:07;;;;;;;;;;;;;;;-144.99;88.67;52386.94;5048375;28;19925;-72
2023/03/01 03:56:35;;;;;;;;;;;;;;;-144.99;88.74;52419.56;5049162;28;19925;-73
2023/03/01 03:59:01;;;;;;;;;;;;;;;-144.99;88.89;52439.94;5048318;28;19928;-69
2023/03/01 04:01:28;;;;;;;;;;;;;;;-144.99;89.22;52448.09;5045149;28;19951;-69
2023/03/01 04:03:55;;;;;;;;;;;;;;;-144.99;89.07;52382.88;5049045;28;20204;-69
2023/03/01 04:06:22;;;;;;;;;;;;;;;-144.99;89.17;52452.16;5048642;28;19954;-68
2023/03/01 04:08:50;;;;;;;;;;;;;;;-144.99;90.07;52405.28;5047817;28;19928;-69
2023/03/01 04:13:59;;;;;;;;;;;;;;;-144.99;90.50;52415.47;5038364;28;19924;-68
2023/03/01 04:16:26;;;;;;;;;;;;;;;-144.99;90.35;52437.91;5048539;28;20414;-67
2023/03/01 04:18:54;;;;;;;;;;;;;;;-144.99;90.56;52399.19;5048323;28;19979;-68
2023/03/01 04:21:21;;;;;;;;;;;;;;;-144.99;89.79;52439.94;5048377;28;19939;-68
2023/03/01 04:23:47;;;;;;;;;;;;;;;-144.99;90.15;52460.31;5048327;28;20441;-72
2023/03/01 04:26:14;;;;;;;;;;;;;;;-144.99;90.05;52427.72;5048896;28;19971;-71
2023/03/01 04:28:42;;;;;;;;;;;;;;;-144.99;90.29;52437.91;5048292;28;19929;-68
2023/03/01 04:31:13;;;;;;;;;;;;;;;-144.99;90.16;52419.56;5048110;28;20420;-68
2023/03/01 04:33:41;;;;;;;;;;;;;;;-144.99;89.85;52403.25;5048323;28;19928;-68
2023/03/01 04:36:09;;;;;;;;;;;;;;;-144.99;90.55;52427.72;5047774;28;19929;-68
2023/03/01 04:38:37;;;;;;;;;;;;;;;-144.99;90.67;52423.63;5047925;28;20293;-69
2023/03/01 04:41:04;;;;;;;;;;;;;;;-144.99;90.36;52415.47;5047960;28;19968;-68
2023/03/01 04:43:30;;;;;;;;;;;;;;;-144.99;90.60;52419.56;5047696;28;19971;-67
2023/03/01 04:46:02;;;;;;;;;;;;;;;-144.99;90.33;52407.31;5047847;28;20320;-74
2023/03/01 04:48:30;;;;;;;;;;;;;;;-144.99;90.17;52423.63;5040914;28;19935;-74
2023/03/01 04:50:56;;;;;;;;;;;;;;;-144.99;90.18;52419.56;5040265;28;20016;-70
2023/03/01 04:53:23;;;;;;;;;;;;;;;-144.99;89.71;52444.03;5047615;28;20352;-69
2023/03/01 04:55:49;;;;;;;;;;;;;;;-144.99;89.34;52431.78;5047786;28;19936;-68
2023/03/01 04:58:16;;;;;;;;;;;;;;;-144.99;89.07;52419.56;5047329;28;20015;-71
2023/03/01 05:00:43;;;;;;;;;;;;;;;-144.99;88.99;52415.47;5045034;28;19925;-79
2023/03/01 05:03:09;;;;;;;;;;;;;;;-144.99;89.51;52395.09;5044888;28;19983;-80
2023/03/01 05:05:38;;;;;;;;;;;;;;;-144.99;89.44;52427.72;5042379;28;19925;-81
2023/03/01 05:08:06;;;;;;;;;;;;;;;-144.99;89.63;52419.56;5054182;28;20401;-80
2023/03/01 05:10:35;;;;;;;;;;;;;;;-144.99;89.61;52435.88;5037399;28;20291;-80
2023/03/01 05:13:02;;;;;;;;;;;;;;;-144.99;89.34;52407.31;5047879;28;20459;-78
2023/03/01 05:15:29;;;;;;;;;;;;;;;-144.99;89.79;52415.47;5032897;28;19936;-65
2023/03/01 05:17:58;;;;;;;;;;;;;;;-144.99;89.47;52378.78;5042953;28;20455;-65
2023/03/01 05:20:24;;;;;;;;;;;;;;;-144.99;89.80;52386.94;5047841;28;19988;-65
2023/03/01 05:22:53;;;;;;;;;;;;;;;-144.99;89.46;52435.88;5048798;28;19925;-65
2023/03/01 05:25:21;;;;;;;;;;;;;;;-144.99;89.87;52427.72;5044443;28;20309;-66
2023/03/01 05:27:48;;;;;;;;;;;;;;;-144.99;89.89;52401.22;5043407;28;20021;-70
2023/03/01 05:30:15;;;;;;;;;;;;;;;-144.99;89.78;52397.13;5048542;28;20401;-69
2023/03/01 05:32:43;;;;;;;;;;;;;;;-144.99;90.17;52407.31;5048184;28;20274;-70
2023/03/01 05:35:12;;;;;;;;;;;;;;;-144.99;90.17;52448.09;5049263;28;20007;-68
2023/03/01 05:37:40;;;;;;;;;;;;;;;-144.99;90.20;52395.09;5047997;28;20370;-68
2023/03/01 05:40:15;;;;;;;;;;;;;;;-144.99;90.25;52405.28;5045764;28;20377;-68
2023/03/01 05:42:42;;;;;;;;;;;;;;;-144.99;90.27;52435.88;5049308;28;20067;-67
2023/03/01 05:45:10;;;;;;;;;;;;;;;-144.99;90.01;52391.03;5050876;28;20001;-68
2023/03/01 05:47:36;;;;;;;;;;;;;;;-144.99;89.97;52370.63;5049856;28;20024;-68
2023/03/01 05:50:03;;;;;;;;;;;;;;;-144.99;90.02;52407.31;5047011;28;19995;-68
2023/03/01 05:52:29;;;;;;;;;;;;;;;-144.99;89.81;52407.31;5048201;28;19925;-68
2023/03/01 05:54:56;;;;;;;;;;;;;;;-144.99;90.09;52386.94;5050102;28;20309;-69
2023/03/01 05:57:24;;;;;;;;;;;;;;;-144.99;90.29;52403.25;5046036;28;19967;-66
2023/03/01 05:59:50;;;;;;;;;;;;;;;-144.99;90.42;52384.91;5044449;28;19967;-74
2023/03/01 06:02:17;;;;;;;;;;;;;;;-144.99;90.42;52407.31;5048102;28;20309;-75
2023/03/01 06:04:43;;;;;;;;;;;;;;;-144.99;90.36;52395.09;5042818;28;19985;-75
2023/03/01 06:07:10;;;;;;;;;;;;;;;-144.99;90.39;52403.25;5048678;28;19925;-74
2023/03/01 06:09:36;;;;;;;;;;;;;;;-144.99;90.39;52391.03;5049965;28;19913;-75
2023/03/01 06:12:04;;;;;;;;;;;;;;;-144.99;90.07;52395.09;5053563;28;20452;-70
2023/03/01 06:14:32;;;;;;;;;;;;;;;-144.99;89.79;52399.19;4350293;28;10001342;-70
2023/03/01 06:16:59;;;;;;;;;;;;;;;-144.99;89.50;52397.13;5044734;28;19924;-71
2023/03/01 06:19:25;;;;;;;;;;;;;;;-144.99;89.06;52415.47;5048485;28;20465;-71
2023/03/01 06:21:52;;;;;;;;;;;;;;;-144.99;88.87;52399.19;5040156;28;20006;-71
2023/03/01 06:24:18;;;;;;;;;;;;;;;-144.99;90.05;52399.19;5044722;28;19957;-71
2023/03/01 06:26:45;;;;;;;;;;;;;;;-144.99;89.39;52338.03;5047184;28;20349;-71
2023/03/01 06:29:11;;;;;;;;;;;;;;;-144.99;90.18;52413.44;5046380;28;20527;-71
2023/03/01 06:31:39;;;;;;;;;;;;;;;-144.99;90.41;52403.25;5048057;28;19967;-71
2023/03/01 06:34:06;;;;;;;;;;;;;;;-144.99;90.77;52427.72;5047827;28;19929;-70
2023/03/01 06:36:32;;;;;;;;;;;;;;;-144.99;90.98;52382.88;5046989;28;19959;-70
2023/03/01 06:38:59;;;;;;;;;;;;;;;-144.99;90.91;52399.19;5048229;28;20349;-70
2023/03/01 06:41:26;;;;;;;;;;;;;;;-144.99;89.99;52391.03;5047458;28;19936;-70
2023/03/01 06:43:54;;;;;;;;;;;;;;;-144.99;89.79;52439.94;5038571;28;19925;-70
2023/03/01 06:46:21;;;;;;;;;;;;;;;-144.99;89.74;52407.31;5041070;28;19971;-70
2023/03/01 06:48:49;;;;;;;;;;;;;;;-144.99;89.55;52395.09;5049093;28;20005;-70
2023/03/01 06:51:15;;;;;;;;;;;;;;;-144.99;89.67;52352.28;5044972;28;19999;-70
2023/03/01 06:53:42;;;;;;;;;;;;;;;-144.99;89.40;52362.50;5041619;28;19975;-70
2023/03/01 06:56:08;;;;;;;;;;;;;;;-144.99;89.48;52403.25;5044897;28;19933;-70
2023/03/01 06:58:35;;;;;;;;;;;;;;;-144.99;89.20;52362.50;5048510;28;19925;-70
2023/03/01 07:01:05;;;;;;;;;;;;;;;-144.99;89.18;52431.78;5047523;28;19985;-70
2023/03/01 07:03:32;;;;;;;;;;;;;;;-144.99;89.52;52431.78;5048728;28;20377;-70
2023/03/01 07:06:00;;;;;;;;;;;;;;;-144.99;89.43;52378.78;5045994;28;20455;-70
2023/03/01 07:08:26;;;;;;;;;;;;;;;-144.99;89.57;52399.19;5043668;28;20404;-72
2023/03/01 07:10:55;;;;;;;;;;;;;;;-144.99;89.33;52378.78;5041165;28;20006;-72
2023/03/01 07:13:22;;;;;;;;;;;;;;;-144.99;89.58;52431.78;5046303;28;20370;-71
2023/03/01 07:15:48;;;;;;;;;;;;;;;-144.99;90.02;52407.31;5046546;28;20006;-73
2023/03/01 07:18:15;;;;;;;;;;;;;;;-144.99;90.36;52407.31;5039614;28;20436;-72
2023/03/01 07:20:41;;;;;;;;;;;;;;;-144.99;91.30;52354.34;5046641;28;19980;-73
2023/03/01 07:23:09;;;;;;;;;;;;;;;-144.99;91.19;52421.59;5046371;28;19972;-73
2023/03/01 07:25:36;;;;;;;;;;;;;;;-144.99;91.11;52413.44;5046345;28;19929;-71
2023/03/01 07:28:03;;;;;;;;;;;;;;;-144.99;91.53;52411.41;5046760;28;19978;-70
2023/03/01 07:30:29;;;;;;;;;;;;;;;-144.99;91.64;52437.91;5039267;28;20031;-71
2023/03/01 07:32:56;;;;;;;;;;;;;;;-144.99;91.73;52397.13;5068547;28;19937;-73
2023/03/01 07:35:22;;;;;;;;;;;;;;;-144.99;91.83;52362.50;5059591;28;20145;-72
2023/03/01 07:37:49;;;;;;;;;;;;;;;-144.99;92.04;52417.53;5044780;28;19964;-71
2023/03/01 07:40:17;;;;;;;;;;;;;;;-144.99;92.77;52368.59;5046801;28;19986;-71
2023/03/01 07:42:43;;;;;;;;;;;;;;;-144.99;92.73;52370.63;5043709;28;19928;-74
2023/03/01 07:45:10;;;;;;;;;;;;;;;-144.99;92.34;52403.25;5045708;28;19925;-75
2023/03/01 07:47:37;;;;;;;;;;;;;;;-144.99;92.05;52358.41;5045846;28;20270;-75
2023/03/01 07:50:05;;;;;;;;;;;;;;;-144.99;92.08;52399.19;5045625;28;19925;-73
2023/03/01 07:52:31;;;;;;;;;;;;;;;-144.99;92.10;52374.72;5046197;28;20354;-73
2023/03/01 07:54:58;;;;;;;;;;;;;;;-144.99;92.68;52366.56;5046320;28;19994;-74
2023/03/01 07:57:26;;;;;;;;;;;;;;;-144.99;93.65;52378.78;5039134;28;19928;-73
2023/03/01 07:59:52;;;;;;;;;;;;;;;-144.99;93.45;52370.63;5042263;28;19933;-73
2023/03/01 08:02:19;;;;;;;;;;;;;;;-144.99;93.24;52374.72;5039327;28;19996;-72
2023/03/01 08:04:45;;;;;;;;;;;;;;;-144.99;93.06;52362.50;4697280;28;9999721;-72
2023/03/01 08:07:12;;;;;;;;;;;;;;;-144.99;92.77;52374.72;5045720;28;19936;-74
2023/03/01 08:09:38;;;;;;;;;;;;;;;-144.99;92.95;52370.63;5046224;28;19937;-74
2023/03/01 08:12:05;;;;;;;;;;;;;;;-144.99;93.22;52403.25;5045731;28;19982;-74
2023/03/01 08:14:33;;;;;;;;;;;;;;;-144.99;92.64;52378.78;5048474;28;19925;-71
2023/03/01 08:17:00;;;;;;;;;;;;;;;-144.99;92.38;52350.25;5055176;28;19913;-73
2023/03/01 08:19:27;;;;;;;;;;;;;;;-144.99;92.37;52374.72;5046457;28;19932;-73
2023/03/01 08:21:54;;;;;;;;;;;;;;;-144.99;92.69;52342.09;5041428;28;19925;-73
2023/03/01 08:24:20;;;;;;;;;;;;;;;-144.99;92.96;52378.78;5045834;28;19936;-75
2023/03/01 08:26:47;;;;;;;;;;;;;;;-144.99;92.46;52358.41;5046646;28;19956;-73
2023/03/01 08:29:13;;;;;;;;;;;;;;;-144.99;91.90;52386.94;5044061;28;20467;-73
2023/03/01 08:31:41;;;;;;;;;;;;;;;-144.99;91.39;52382.88;5045322;28;19960;-73
2023/03/01 08:34:09;;;;;;;;;;;;;;;-144.99;91.68;52354.34;5046630;28;19928;-73
2023/03/01 08:36:37;;;;;;;;;;;;;;;-144.99;91.26;52376.75;5046993;28;19932;-73
2023/03/01 08:39:04;;;;;;;;;;;;;;;-144.99;90.52;52386.94;5038754;28;19986;-73
2023/03/01 08:41:31;;;;;;;;;;;;;;;-144.99;89.53;52358.41;5041070;28;20390;-75
2023/03/01 08:43:59;;;;;;;;;;;;;;;-144.99;89.07;52358.41;5045483;28;20002;-76
2023/03/01 08:46:26;;;;;;;;;;;;;;;-144.99;89.18;52366.56;5042084;28;19967;-73
2023/03/01 08:48:54;;;;;;;;;;;;;;;-144.99;89.02;52362.50;5044809;28;19975;-74
2023/03/01 08:51:21;;;;;;;;;;;;;;;-144.99;89.31;52362.50;5037928;28;19929;-74
2023/03/01 08:53:48;;;;;;;;;;;;;;;-144.99;89.14;52342.09;5042282;28;19968;-72
2023/03/01 08:56:15;;;;;;;;;;;;;;;-144.99;88.28;52370.63;5052473;28;19925;-76
2023/03/01 08:58:44;;;;;;;;;;;;;;;-144.99;87.49;52338.03;5069787;28;19966;-78
2023/03/01 09:01:12;;;;;;;;;;;;;;;-144.99;87.92;52350.25;5056093;28;19978;-73
2023/03/01 09:03:39;;;;;;;;;;;;;;;-144.99;87.47;52346.19;5048638;28;19928;-76
2023/03/01 09:06:08;;;;;;;;;;;;;;;-144.99;87.05;52321.72;5061345;28;19939;-77
2023/03/01 09:08:35;;;;;;;;;;;;;;;-144.99;85.70;52342.09;5056124;28;20050;-74
2023/03/01 09:11:02;;;;;;;;;;;;;;;-144.99;85.28;52362.50;5042768;28;19950;-78
2023/03/01 09:13:30;;;;;;;;;;;;;;;-144.99;85.63;52338.03;5038173;28;19925;-76
2023/03/01 09:15:57;;;;;;;;;;;;;;;-144.99;85.54;52362.50;5046738;28;19924;-75
2023/03/01 09:18:24;;;;;;;;;;;;;;;-144.99;85.17;52338.03;5046618;28;20404;-78
2023/03/01 09:20:50;;;;;;;;;;;;;;;-144.99;85.03;52321.72;5037711;28;19990;-74
2023/03/01 09:23:18;;;;;;;;;;;;;;;-144.99;84.52;52342.09;5045671;28;19943;-76
2023/03/01 09:25:44;;;;;;;;;;;;;;;-144.99;83.46;52338.03;5045657;28;19963;-75
2023/03/01 09:28:11;;;;;;;;;;;;;;;-144.99;83.38;52338.03;5039495;28;20389;-75
2023/03/01 09:30:37;;;;;;;;;;;;;;;-144.99;82.87;52350.25;5036853;28;20237;-76
2023/03/01 09:33:04;;;;;;;;;;;;;;;-144.99;82.57;52350.25;5038257;28;19959;-75
2023/03/01 09:35:31;;;;;;;;;;;;;;;-144.99;82.99;52342.09;5041503;28;20140;-76
2023/03/01 09:37:57;;;;;;;;;;;;;;;-144.99;83.14;52358.41;5046564;28;19939;-73
2023/03/01 09:40:27;;;;;;;;;;;;;;;-144.99;83.81;52338.03;5049082;28;19943;-77
2023/03/01 09:42:56;;;;;;;;;;;;;;;-144.99;84.54;52338.03;5058565;28;19950;-79
2023/03/01 09:45:27;;;;;;;;;;;;;;;-144.99;85.19;52333.94;5057912;28;19929;-75
2023/03/01 09:47:53;;;;;;;;;;;;;;;-144.99;86.30;52380.84;5049350;28;19983;-75
2023/03/01 09:50:20;;;;;;;;;;;;;;;-144.99;85.47;52338.03;5046554;28;19929;-76
2023/03/01 09:52:49;;;;;;;;;;;;;;;-144.99;85.28;52366.56;5044122;28;19958;-75
2023/03/01 09:55:18;;;;;;;;;;;;;;;-144.99;85.44;52338.03;5044777;28;20622;-76
2023/03/01 09:57:50;;;;;;;;;;;;;;;-144.99;84.76;52358.41;5045849;28;19932;-76
2023/03/01 10:00:30;;;;;;;;;;;;;;;-144.99;84.72;52366.56;5044511;28;20367;-75
2023/03/01 10:03:00;;;;;;;;;;;;;;;-144.99;84.63;52338.03;5044623;28;19999;-74
2023/03/01 10:05:35;;;;;;;;;;;;;;;-144.99;85.00;52352.28;5039302;28;20263;-75
2023/03/01 10:08:07;;;;;;;;;;;;;;;-144.99;84.91;52358.41;5046483;28;20021;-75
2023/03/01 10:10:35;;;;;;;;;;;;;;;-144.99;85.54;52301.34;5038876;28;20275;-75
2023/03/01 10:13:06;;;;;;;;;;;;;;;-144.99;86.01;52358.41;5043073;28;19946;-75
2023/03/01 10:15:36;;;;;;;;;;;;;;;-144.99;86.09;52382.88;5039724;28;19957;-74
2023/03/01 10:18:07;;;;;;;;;;;;;;;-144.99;86.73;52333.94;5048968;28;19986;-77
2023/03/01 10:20:38;;;;;;;;;;;;;;;-144.99;87.16;52358.41;5047708;28;20269;-73
2023/03/01 10:23:05;;;;;;;;;;;;;;;-144.99;87.42;52401.22;5040838;28;19939;-74
2023/03/01 10:25:45;;;;;;;;;;;;;;;-144.99;87.76;52384.91;5036929;28;19987;-74
2023/03/01 10:28:16;;;;;;;;;;;;;;;-144.99;88.82;52368.59;5040462;28;20169;-75
2023/03/01 10:30:43;;;;;;;;;;;;;;;-144.99;88.25;52346.19;5036821;28;19928;-75
2023/03/01 10:33:14;;;;;;;;;;;;;;;-144.99;88.47;52333.94;5046590;28;19929;-74
2023/03/01 10:35:41;;;;;;;;;;;;;;;-144.99;88.70;52342.09;5040983;28;19933;-75
2023/03/01 10:38:09;;;;;;;;;;;;;;;-144.99;89.32;52338.03;5046652;28;20401;-74
2023/03/01 10:40:36;;;;;;;;;;;;;;;-144.99;89.44;52342.09;5047991;28;20062;-75
2023/03/01 10:43:04;;;;;;;;;;;;;;;-144.99;89.04;52346.19;5047017;28;20756;-77
2023/03/01 10:45:34;;;;;;;;;;;;;;;-144.99;88.79;52321.72;5036750;28;20228;-77
2023/03/01 10:48:04;;;;;;;;;;;;;;;-144.99;88.70;52374.72;5044705;28;20417;-76
2023/03/01 10:50:31;;;;;;;;;;;;;;;-144.99;88.99;52346.19;5044595;28;20348;-75
2023/03/01 10:52:59;;;;;;;;;;;;;;;-144.99;89.32;52370.63;5035908;28;19979;-78
2023/03/01 10:55:28;;;;;;;;;;;;;;;-144.99;89.62;52366.56;5041396;28;19967;-76
2023/03/01 10:58:07;;;;;;;;;;;;;;;-144.99;90.28;52358.41;5039729;28;19932;-78
2023/03/01 11:00:46;;;;;;;;;;;;;;;-144.99;90.32;52352.28;5043391;28;19975;-76
2023/03/01 11:03:13;;;;;;;;;;;;;;;-144.99;90.70;52311.53;5039009;28;19980;-74
2023/03/01 11:05:51;;;;;;;;;;;;;;;-144.99;90.44;52325.81;5047677;28;20002;-76
2023/03/01 11:08:29;;;;;;;;;;;;;;;-144.99;90.59;52358.41;5038477;28;20034;-75
2023/03/01 11:11:04;;;;;;;;;;;;;;;-144.99;90.14;52317.66;5047215;28;19925;-74
2023/03/01 11:13:31;;;;;;;;;;;;;;;-144.99;90.13;52325.81;5043493;28;19932;-76
2023/03/01 11:16:03;;;;;;;;;;;;;;;-144.99;90.02;52309.50;5047535;28;20396;-77
2023/03/01 11:18:30;;;;;;;;;;;;;;;-144.99;89.06;52329.88;5043178;28;19987;-77
2023/03/01 11:20:59;;;;;;;;;;;;;;;-144.99;89.61;52325.81;5042855;28;19936;-76
2023/03/01 11:23:26;;;;;;;;;;;;;;;-144.99;89.05;52364.53;5044287;28;20358;-77
2023/03/01 11:25:55;;;;;;;;;;;;;;;-144.99;87.98;52299.31;4699080;28;10000249;-77
2023/03/01 11:28:23;;;;;;;;;;;;;;;-144.99;87.25;52344.16;5045397;28;20628;-77
2023/03/01 11:30:53;;;;;;;;;;;;;;;-144.99;87.72;52319.69;5041714;28;20589;-76
2023/03/01 11:33:27;;;;;;;;;;;;;;;-144.99;87.35;52289.13;5048147;28;20005;-76
2023/03/01 11:35:56;;;;;;;;;;;;;;;-144.99;86.93;52338.03;5038970;28;19929;-74
2023/03/01 11:38:23;;;;;;;;;;;;;;;-144.99;87.41;52305.41;5039236;28;19936;-76
2023/03/01 11:40:53;;;;;;;;;;;;;;;-144.99;87.09;52305.41;5046625;28;20386;-75
2023/03/01 11:43:24;;;;;;;;;;;;;;;-144.99;87.09;52305.41;5037092;28;19925;-79
2023/03/01 11:46:06;;;;;;;;;;;;;;;-144.99;86.88;52346.19;5043338;28;20063;-77
2023/03/01 11:48:45;;;;;;;;;;;;;;;-144.99;87.14;52362.50;5044911;28;20366;-76
2023/03/01 11:51:16;;;;;;;;;;;;;;;-144.99;86.56;52313.56;5045398;28;19933;-76
2023/03/01 11:53:52;;;;;;;;;;;;;;;-144.99;86.22;52291.16;5047067;28;20025;-76
2023/03/01 11:56:25;;;;;;;;;;;;;;;-144.99;85.36;52329.88;5044058;28;20316;-76
2023/03/01 11:59:04;;;;;;;;;;;;;;;-144.99;85.98;52323.75;5046357;28;20003;-81
2023/03/01 12:01:41;;;;;;;;;;;;;;;-144.99;86.11;52333.94;5044986;28;19986;-80
2023/03/01 12:04:22;;;;;;;;;;;;;;;-144.99;86.19;52338.03;5048819;28;19974;-77
2023/03/01 12:06:51;;;;;;;;;;;;;;;-144.99;85.38;52325.81;5047958;28;20037;-79
2023/03/01 12:09:23;;;;;;;;;;;;;;;-144.99;85.40;52325.81;5050414;28;19944;-76
2023/03/01 12:11:58;;;;;;;;;;;;;;;-144.99;85.24;52315.59;5043076;28;20010;-76
2023/03/01 12:14:35;;;;;;;;;;;;;;;-144.99;85.05;52315.59;5047777;28;19937;-78
2023/03/01 12:17:09;;;;;;;;;;;;;;;-144.99;84.55;52333.94;5039725;28;19998;-78
2023/03/01 12:19:52;;;;;;;;;;;;;;;-144.99;84.29;52280.97;5054456;28;19925;-82
2023/03/01 12:22:29;;;;;;;;;;;;;;;-144.99;83.96;52338.03;5049642;28;19929;-79
2023/03/01 12:25:16;;;;;;;;;;;;;;;-144.99;83.09;52301.34;5048973;28;20340;-75
2023/03/01 12:27:52;;;;;;;;;;;;;;;-144.99;83.05;52321.72;5045057;28;20006;-76
2023/03/01 12:30:24;;;;;;;;;;;;;;;-144.99;83.31;52321.72;5032360;28;19929;-77
2023/03/01 12:32:57;;;;;;;;;;;;;;;-144.99;83.80;52354.34;5034948;28;19925;-79
2023/03/01 12:35:33;;;;;;;;;;;;;;;-144.99;84.03;52344.16;5045329;28;19987;-77
2023/03/01 12:38:07;;;;;;;;;;;;;;;-144.99;83.64;52321.72;5042803;28;20081;-77